sensor_id;sensor_type;location;lat;lon;timestamp;P1;durP1;ratioP1;P2;durP2;ratioP2
5688;SDS011;2869;50.432;8.680;2022-10-15T00:00:19;18.43;;;11.10;;
5688;SDS011;2869;50.432;8.680;2022-10-15T00:02:46;16.10;;;12.20;;
5688;SDS011;2869;50.432;8.680;2022-10-15T00:05:13;13.40;;;10.10;;
5688;SDS011;2869;50.432;8.680;2022-10-15T00:07:40;15.40;;;11.27;;
5688;SDS011;2869;50.432;8.680;2022-10-15T00:10:08;15.40;;;11.03;;
5688;SDS011;2869;50.432;8.680;2022-10-15T00:12:35;17.03;;;11.40;;
5688;SDS011;2869;50.432;8.680;2022-10-15T00:15:02;24.83;;;11.87;;
5688;SDS011;2869;50.432;8.680;2022-10-15T00:17:30;15.90;;;11.50;;
5688;SDS011;2869;50.432;8.680;2022-10-15T00:19:57;20.43;;;12.83;;
5688;SDS011;2869;50.432;8.680;2022-10-15T00:22:24;16.63;;;11.93;;
5688;SDS011;2869;50.432;8.680;2022-10-15T00:24:50;16.80;;;10.60;;
5688;SDS011;2869;50.432;8.680;2022-10-15T00:27:18;17.83;;;12.50;;
5688;SDS011;2869;50.432;8.680;2022-10-15T00:29:45;18.70;;;12.20;;
5688;SDS011;2869;50.432;8.680;2022-10-15T00:32:12;19.30;;;12.80;;
5688;SDS011;2869;50.432;8.680;2022-10-15T00:34:39;17.10;;;11.90;;
5688;SDS011;2869;50.432;8.680;2022-10-15T00:37:05;17.20;;;12.40;;
5688;SDS011;2869;50.432;8.680;2022-10-15T00:39:32;20.13;;;13.07;;
5688;SDS011;2869;50.432;8.680;2022-10-15T00:41:59;22.93;;;12.60;;
5688;SDS011;2869;50.432;8.680;2022-10-15T00:44:45;22.07;;;12.23;;
5688;SDS011;2869;50.432;8.680;2022-10-15T00:47:22;16.17;;;11.73;;
5688;SDS011;2869;50.432;8.680;2022-10-15T00:50:00;18.40;;;12.37;;
5688;SDS011;2869;50.432;8.680;2022-10-15T00:52:31;16.87;;;10.93;;
5688;SDS011;2869;50.432;8.680;2022-10-15T00:55:05;18.00;;;12.37;;
5688;SDS011;2869;50.432;8.680;2022-10-15T00:57:34;18.40;;;12.20;;
5688;SDS011;2869;50.432;8.680;2022-10-15T01:00:05;20.63;;;12.57;;
5688;SDS011;2869;50.432;8.680;2022-10-15T01:02:34;18.73;;;12.07;;
5688;SDS011;2869;50.432;8.680;2022-10-15T01:05:01;20.47;;;12.57;;
5688;SDS011;2869;50.432;8.680;2022-10-15T01:07:29;20.80;;;12.37;;
5688;SDS011;2869;50.432;8.680;2022-10-15T01:09:56;19.63;;;12.63;;
5688;SDS011;2869;50.432;8.680;2022-10-15T01:12:25;22.30;;;12.90;;
5688;SDS011;2869;50.432;8.680;2022-10-15T01:15:06;19.53;;;13.73;;
5688;SDS011;2869;50.432;8.680;2022-10-15T01:17:41;17.60;;;12.50;;
5688;SDS011;2869;50.432;8.680;2022-10-15T01:20:26;18.87;;;12.80;;
5688;SDS011;2869;50.432;8.680;2022-10-15T01:23:13;24.57;;;13.77;;
5688;SDS011;2869;50.432;8.680;2022-10-15T01:26:08;21.80;;;13.80;;
5688;SDS011;2869;50.432;8.680;2022-10-15T01:28:57;20.97;;;13.47;;
5688;SDS011;2869;50.432;8.680;2022-10-15T01:31:36;21.00;;;13.53;;
5688;SDS011;2869;50.432;8.680;2022-10-15T01:34:08;24.47;;;14.27;;
5688;SDS011;2869;50.432;8.680;2022-10-15T01:36:44;23.40;;;14.77;;
5688;SDS011;2869;50.432;8.680;2022-10-15T01:39:18;25.23;;;14.40;;
5688;SDS011;2869;50.432;8.680;2022-10-15T01:41:48;22.50;;;12.77;;
5688;SDS011;2869;50.432;8.680;2022-10-15T01:44:19;21.20;;;13.90;;
5688;SDS011;2869;50.432;8.680;2022-10-15T01:46:51;21.43;;;13.53;;
5688;SDS011;2869;50.432;8.680;2022-10-15T01:49:23;18.40;;;12.90;;
5688;SDS011;2869;50.432;8.680;2022-10-15T01:51:54;22.20;;;12.73;;
5688;SDS011;2869;50.432;8.680;2022-10-15T01:54:24;24.90;;;12.90;;
5688;SDS011;2869;50.432;8.680;2022-10-15T01:56:52;19.00;;;13.20;;
5688;SDS011;2869;50.432;8.680;2022-10-15T01:59:21;19.93;;;13.20;;
5688;SDS011;2869;50.432;8.680;2022-10-15T02:01:52;20.87;;;12.80;;
5688;SDS011;2869;50.432;8.680;2022-10-15T02:04:20;20.40;;;12.77;;
5688;SDS011;2869;50.432;8.680;2022-10-15T02:06:49;25.40;;;13.53;;
5688;SDS011;2869;50.432;8.680;2022-10-15T02:09:20;24.63;;;13.20;;
5688;SDS011;2869;50.432;8.680;2022-10-15T02:11:57;20.40;;;12.97;;
5688;SDS011;2869;50.432;8.680;2022-10-15T02:14:32;21.53;;;12.17;;
5688;SDS011;2869;50.432;8.680;2022-10-15T02:17:05;23.40;;;13.70;;
5688;SDS011;2869;50.432;8.680;2022-10-15T02:19:37;30.33;;;13.13;;
5688;SDS011;2869;50.432;8.680;2022-10-15T02:22:09;29.17;;;12.57;;
5688;SDS011;2869;50.432;8.680;2022-10-15T02:24:40;27.93;;;12.50;;
5688;SDS011;2869;50.432;8.680;2022-10-15T02:27:12;19.20;;;11.50;;
5688;SDS011;2869;50.432;8.680;2022-10-15T02:29:41;23.23;;;12.60;;
5688;SDS011;2869;50.432;8.680;2022-10-15T02:32:11;26.60;;;13.40;;
5688;SDS011;2869;50.432;8.680;2022-10-15T02:34:40;22.70;;;13.20;;
5688;SDS011;2869;50.432;8.680;2022-10-15T02:37:09;19.90;;;11.50;;
5688;SDS011;2869;50.432;8.680;2022-10-15T02:39:36;19.93;;;11.77;;
5688;SDS011;2869;50.432;8.680;2022-10-15T02:42:03;21.80;;;12.43;;
5688;SDS011;2869;50.432;8.680;2022-10-15T02:44:31;25.80;;;12.30;;
5688;SDS011;2869;50.432;8.680;2022-10-15T02:46:58;19.00;;;11.17;;
5688;SDS011;2869;50.432;8.680;2022-10-15T02:49:26;16.63;;;11.13;;
5688;SDS011;2869;50.432;8.680;2022-10-15T02:51:53;22.00;;;11.90;;
5688;SDS011;2869;50.432;8.680;2022-10-15T02:54:20;21.70;;;11.67;;
5688;SDS011;2869;50.432;8.680;2022-10-15T02:56:47;20.13;;;10.47;;
5688;SDS011;2869;50.432;8.680;2022-10-15T02:59:13;17.83;;;10.60;;
5688;SDS011;2869;50.432;8.680;2022-10-15T03:01:40;22.10;;;11.17;;
5688;SDS011;2869;50.432;8.680;2022-10-15T03:04:07;19.20;;;10.77;;
5688;SDS011;2869;50.432;8.680;2022-10-15T03:06:35;16.27;;;9.77;;
5688;SDS011;2869;50.432;8.680;2022-10-15T03:09:02;12.33;;;8.73;;
5688;SDS011;2869;50.432;8.680;2022-10-15T03:11:29;15.03;;;9.60;;
5688;SDS011;2869;50.432;8.680;2022-10-15T03:13:56;12.07;;;8.70;;
5688;SDS011;2869;50.432;8.680;2022-10-15T03:16:23;13.53;;;8.60;;
5688;SDS011;2869;50.432;8.680;2022-10-15T03:18:49;12.33;;;8.60;;
5688;SDS011;2869;50.432;8.680;2022-10-15T03:21:16;11.70;;;8.30;;
5688;SDS011;2869;50.432;8.680;2022-10-15T03:23:44;12.13;;;7.87;;
5688;SDS011;2869;50.432;8.680;2022-10-15T03:26:11;11.37;;;7.80;;
5688;SDS011;2869;50.432;8.680;2022-10-15T03:28:37;11.67;;;8.70;;
5688;SDS011;2869;50.432;8.680;2022-10-15T03:31:04;13.23;;;8.97;;
5688;SDS011;2869;50.432;8.680;2022-10-15T03:33:31;12.57;;;8.27;;
5688;SDS011;2869;50.432;8.680;2022-10-15T03:35:58;11.10;;;8.07;;
5688;SDS011;2869;50.432;8.680;2022-10-15T03:38:25;16.30;;;9.43;;
5688;SDS011;2869;50.432;8.680;2022-10-15T03:40:53;15.10;;;8.47;;
5688;SDS011;2869;50.432;8.680;2022-10-15T03:43:21;11.53;;;7.50;;
5688;SDS011;2869;50.432;8.680;2022-10-15T03:45:49;11.70;;;8.07;;
5688;SDS011;2869;50.432;8.680;2022-10-15T03:48:16;12.37;;;8.33;;
5688;SDS011;2869;50.432;8.680;2022-10-15T03:50:43;13.40;;;8.10;;
5688;SDS011;2869;50.432;8.680;2022-10-15T03:53:10;12.93;;;7.90;;
5688;SDS011;2869;50.432;8.680;2022-10-15T03:55:37;10.27;;;7.63;;
5688;SDS011;2869;50.432;8.680;2022-10-15T03:58:05;12.80;;;7.30;;
5688;SDS011;2869;50.432;8.680;2022-10-15T04:00:31;10.63;;;8.17;;
5688;SDS011;2869;50.432;8.680;2022-10-15T04:02:58;10.43;;;7.23;;
5688;SDS011;2869;50.432;8.680;2022-10-15T04:05:25;11.03;;;7.10;;
5688;SDS011;2869;50.432;8.680;2022-10-15T04:07:52;12.53;;;7.63;;
5688;SDS011;2869;50.432;8.680;2022-10-15T04:10:18;11.60;;;7.00;;
5688;SDS011;2869;50.432;8.680;2022-10-15T04:12:45;9.97;;;7.07;;
5688;SDS011;2869;50.432;8.680;2022-10-15T04:15:13;7.80;;;6.67;;
5688;SDS011;2869;50.432;8.680;2022-10-15T04:17:40;9.40;;;7.20;;
5688;SDS011;2869;50.432;8.680;2022-10-15T04:20:07;11.20;;;7.97;;
5688;SDS011;2869;50.432;8.680;2022-10-15T04:22:35;10.20;;;6.43;;
5688;SDS011;2869;50.432;8.680;2022-10-15T04:25:02;8.57;;;6.40;;
5688;SDS011;2869;50.432;8.680;2022-10-15T04:27:30;10.40;;;5.90;;
5688;SDS011;2869;50.432;8.680;2022-10-15T04:29:56;7.40;;;5.73;;
5688;SDS011;2869;50.432;8.680;2022-10-15T04:32:24;6.57;;;5.60;;
5688;SDS011;2869;50.432;8.680;2022-10-15T04:34:51;7.87;;;5.30;;
5688;SDS011;2869;50.432;8.680;2022-10-15T04:37:18;6.10;;;5.10;;
5688;SDS011;2869;50.432;8.680;2022-10-15T04:39:44;11.20;;;5.40;;
5688;SDS011;2869;50.432;8.680;2022-10-15T04:42:11;6.20;;;5.43;;
5688;SDS011;2869;50.432;8.680;2022-10-15T04:44:38;6.57;;;4.83;;
5688;SDS011;2869;50.432;8.680;2022-10-15T04:47:04;5.20;;;4.70;;
5688;SDS011;2869;50.432;8.680;2022-10-15T04:49:32;5.70;;;5.20;;
5688;SDS011;2869;50.432;8.680;2022-10-15T04:51:59;7.00;;;5.60;;
5688;SDS011;2869;50.432;8.680;2022-10-15T04:54:25;6.60;;;5.33;;
5688;SDS011;2869;50.432;8.680;2022-10-15T04:56:52;7.57;;;5.67;;
5688;SDS011;2869;50.432;8.680;2022-10-15T04:59:19;6.30;;;5.70;;
5688;SDS011;2869;50.432;8.680;2022-10-15T05:01:45;11.67;;;5.43;;
5688;SDS011;2869;50.432;8.680;2022-10-15T05:04:12;6.33;;;5.63;;
5688;SDS011;2869;50.432;8.680;2022-10-15T05:06:40;6.87;;;5.60;;
5688;SDS011;2869;50.432;8.680;2022-10-15T05:09:07;6.00;;;5.20;;
5688;SDS011;2869;50.432;8.680;2022-10-15T05:11:34;5.83;;;5.30;;
5688;SDS011;2869;50.432;8.680;2022-10-15T05:14:02;8.20;;;5.47;;
5688;SDS011;2869;50.432;8.680;2022-10-15T05:16:29;8.10;;;5.70;;
5688;SDS011;2869;50.432;8.680;2022-10-15T05:18:57;7.60;;;5.27;;
5688;SDS011;2869;50.432;8.680;2022-10-15T05:21:26;7.93;;;5.80;;
5688;SDS011;2869;50.432;8.680;2022-10-15T05:23:54;6.60;;;5.50;;
5688;SDS011;2869;50.432;8.680;2022-10-15T05:26:22;7.90;;;5.80;;
5688;SDS011;2869;50.432;8.680;2022-10-15T05:28:50;9.00;;;6.17;;
5688;SDS011;2869;50.432;8.680;2022-10-15T05:31:18;7.00;;;5.73;;
5688;SDS011;2869;50.432;8.680;2022-10-15T05:33:47;8.07;;;5.87;;
5688;SDS011;2869;50.432;8.680;2022-10-15T05:36:15;8.43;;;6.00;;
5688;SDS011;2869;50.432;8.680;2022-10-15T05:38:43;8.67;;;6.37;;
5688;SDS011;2869;50.432;8.680;2022-10-15T05:41:11;7.80;;;5.70;;
5688;SDS011;2869;50.432;8.680;2022-10-15T05:43:38;7.80;;;6.40;;
5688;SDS011;2869;50.432;8.680;2022-10-15T05:46:05;8.63;;;6.03;;
5688;SDS011;2869;50.432;8.680;2022-10-15T05:48:32;6.57;;;5.87;;
5688;SDS011;2869;50.432;8.680;2022-10-15T05:50:59;6.00;;;5.40;;
5688;SDS011;2869;50.432;8.680;2022-10-15T05:53:26;9.73;;;5.60;;
5688;SDS011;2869;50.432;8.680;2022-10-15T05:55:53;7.00;;;5.83;;
5688;SDS011;2869;50.432;8.680;2022-10-15T05:58:22;6.50;;;5.90;;
5688;SDS011;2869;50.432;8.680;2022-10-15T06:00:51;9.87;;;6.07;;
5688;SDS011;2869;50.432;8.680;2022-10-15T06:03:19;6.53;;;5.93;;
5688;SDS011;2869;50.432;8.680;2022-10-15T06:05:46;7.53;;;6.10;;
5688;SDS011;2869;50.432;8.680;2022-10-15T06:08:12;5.63;;;4.30;;
5688;SDS011;2869;50.432;8.680;2022-10-15T06:10:39;7.93;;;6.53;;
5688;SDS011;2869;50.432;8.680;2022-10-15T06:13:06;5.47;;;4.80;;
5688;SDS011;2869;50.432;8.680;2022-10-15T06:15:37;6.33;;;4.77;;
5688;SDS011;2869;50.432;8.680;2022-10-15T06:18:04;6.57;;;5.83;;
5688;SDS011;2869;50.432;8.680;2022-10-15T06:20:31;8.13;;;6.13;;
5688;SDS011;2869;50.432;8.680;2022-10-15T06:22:58;7.87;;;4.97;;
5688;SDS011;2869;50.432;8.680;2022-10-15T06:25:26;7.40;;;6.10;;
5688;SDS011;2869;50.432;8.680;2022-10-15T06:27:53;9.10;;;6.30;;
5688;SDS011;2869;50.432;8.680;2022-10-15T06:30:20;7.63;;;5.53;;
5688;SDS011;2869;50.432;8.680;2022-10-15T06:32:48;8.03;;;6.23;;
5688;SDS011;2869;50.432;8.680;2022-10-15T06:35:16;6.67;;;5.70;;
5688;SDS011;2869;50.432;8.680;2022-10-15T06:37:44;7.27;;;5.30;;
5688;SDS011;2869;50.432;8.680;2022-10-15T06:40:11;9.20;;;6.13;;
5688;SDS011;2869;50.432;8.680;2022-10-15T06:42:38;8.40;;;6.37;;
5688;SDS011;2869;50.432;8.680;2022-10-15T06:45:06;13.50;;;5.60;;
5688;SDS011;2869;50.432;8.680;2022-10-15T06:47:34;9.03;;;6.23;;
5688;SDS011;2869;50.432;8.680;2022-10-15T06:50:02;7.10;;;6.10;;
5688;SDS011;2869;50.432;8.680;2022-10-15T06:52:29;9.23;;;6.03;;
5688;SDS011;2869;50.432;8.680;2022-10-15T06:54:56;9.67;;;5.70;;
5688;SDS011;2869;50.432;8.680;2022-10-15T06:57:23;8.27;;;5.97;;
5688;SDS011;2869;50.432;8.680;2022-10-15T06:59:50;13.00;;;6.63;;
5688;SDS011;2869;50.432;8.680;2022-10-15T07:02:17;7.63;;;5.93;;
5688;SDS011;2869;50.432;8.680;2022-10-15T07:04:43;7.03;;;6.10;;
5688;SDS011;2869;50.432;8.680;2022-10-15T07:07:12;11.60;;;6.73;;
5688;SDS011;2869;50.432;8.680;2022-10-15T07:09:39;6.83;;;5.57;;
5688;SDS011;2869;50.432;8.680;2022-10-15T07:12:06;7.90;;;5.77;;
5688;SDS011;2869;50.432;8.680;2022-10-15T07:14:32;7.63;;;5.53;;
5688;SDS011;2869;50.432;8.680;2022-10-15T07:16:59;8.50;;;5.97;;
5688;SDS011;2869;50.432;8.680;2022-10-15T07:19:26;6.90;;;5.30;;
5688;SDS011;2869;50.432;8.680;2022-10-15T07:21:53;8.67;;;6.00;;
5688;SDS011;2869;50.432;8.680;2022-10-15T07:24:21;6.67;;;5.73;;
5688;SDS011;2869;50.432;8.680;2022-10-15T07:26:48;7.90;;;5.23;;
5688;SDS011;2869;50.432;8.680;2022-10-15T07:29:14;8.17;;;5.73;;
5688;SDS011;2869;50.432;8.680;2022-10-15T07:31:41;10.47;;;6.40;;
5688;SDS011;2869;50.432;8.680;2022-10-15T07:34:08;9.73;;;6.70;;
5688;SDS011;2869;50.432;8.680;2022-10-15T07:36:35;6.80;;;5.30;;
5688;SDS011;2869;50.432;8.680;2022-10-15T07:39:01;8.80;;;6.07;;
5688;SDS011;2869;50.432;8.680;2022-10-15T07:41:30;7.70;;;5.90;;
5688;SDS011;2869;50.432;8.680;2022-10-15T07:43:57;8.60;;;6.57;;
5688;SDS011;2869;50.432;8.680;2022-10-15T07:46:23;10.00;;;6.30;;
5688;SDS011;2869;50.432;8.680;2022-10-15T07:48:50;11.23;;;6.50;;
5688;SDS011;2869;50.432;8.680;2022-10-15T07:51:17;8.10;;;6.40;;
5688;SDS011;2869;50.432;8.680;2022-10-15T07:53:44;14.03;;;5.77;;
5688;SDS011;2869;50.432;8.680;2022-10-15T07:56:12;9.33;;;6.50;;
5688;SDS011;2869;50.432;8.680;2022-10-15T07:58:40;8.63;;;6.70;;
5688;SDS011;2869;50.432;8.680;2022-10-15T08:01:15;8.90;;;6.30;;
5688;SDS011;2869;50.432;8.680;2022-10-15T08:03:42;7.53;;;6.13;;
5688;SDS011;2869;50.432;8.680;2022-10-15T08:06:09;9.67;;;5.10;;
5688;SDS011;2869;50.432;8.680;2022-10-15T08:08:36;4.43;;;3.93;;
5688;SDS011;2869;50.432;8.680;2022-10-15T08:11:03;3.83;;;3.53;;
5688;SDS011;2869;50.432;8.680;2022-10-15T08:13:30;4.40;;;3.37;;
5688;SDS011;2869;50.432;8.680;2022-10-15T08:15:58;3.10;;;2.90;;
5688;SDS011;2869;50.432;8.680;2022-10-15T08:18:25;2.83;;;2.37;;
5688;SDS011;2869;50.432;8.680;2022-10-15T08:20:52;4.60;;;2.40;;
5688;SDS011;2869;50.432;8.680;2022-10-15T08:23:18;3.33;;;2.43;;
5688;SDS011;2869;50.432;8.680;2022-10-15T08:25:45;3.17;;;2.20;;
5688;SDS011;2869;50.432;8.680;2022-10-15T08:28:12;2.37;;;2.27;;
5688;SDS011;2869;50.432;8.680;2022-10-15T08:30:38;2.87;;;2.10;;
5688;SDS011;2869;50.432;8.680;2022-10-15T08:33:06;2.30;;;2.10;;
5688;SDS011;2869;50.432;8.680;2022-10-15T08:35:33;2.27;;;2.10;;
5688;SDS011;2869;50.432;8.680;2022-10-15T08:38:03;3.47;;;2.00;;
5688;SDS011;2869;50.432;8.680;2022-10-15T08:40:30;2.90;;;1.80;;
5688;SDS011;2869;50.432;8.680;2022-10-15T08:42:56;2.07;;;1.97;;
5688;SDS011;2869;50.432;8.680;2022-10-15T08:45:24;1.77;;;1.67;;
5688;SDS011;2869;50.432;8.680;2022-10-15T08:47:56;1.93;;;1.67;;
5688;SDS011;2869;50.432;8.680;2022-10-15T08:50:31;2.30;;;1.70;;
5688;SDS011;2869;50.432;8.680;2022-10-15T08:53:05;2.33;;;1.70;;
5688;SDS011;2869;50.432;8.680;2022-10-15T08:55:37;1.87;;;1.77;;
5688;SDS011;2869;50.432;8.680;2022-10-15T08:58:10;4.30;;;1.73;;
5688;SDS011;2869;50.432;8.680;2022-10-15T09:00:42;3.10;;;2.43;;
5688;SDS011;2869;50.432;8.680;2022-10-15T09:03:26;2.50;;;2.30;;
5688;SDS011;2869;50.432;8.680;2022-10-15T09:06:02;3.47;;;3.17;;
5688;SDS011;2869;50.432;8.680;2022-10-15T09:08:36;4.47;;;4.10;;
5688;SDS011;2869;50.432;8.680;2022-10-15T09:11:08;4.10;;;3.70;;
5688;SDS011;2869;50.432;8.680;2022-10-15T09:13:42;7.83;;;4.80;;
5688;SDS011;2869;50.432;8.680;2022-10-15T09:16:11;9.13;;;7.10;;
5688;SDS011;2869;50.432;8.680;2022-10-15T09:18:41;12.83;;;7.10;;
5688;SDS011;2869;50.432;8.680;2022-10-15T09:21:12;8.03;;;6.23;;
5688;SDS011;2869;50.432;8.680;2022-10-15T09:23:40;9.27;;;6.97;;
5688;SDS011;2869;50.432;8.680;2022-10-15T09:26:11;8.40;;;7.30;;
5688;SDS011;2869;50.432;8.680;2022-10-15T09:28:50;13.00;;;6.97;;
5688;SDS011;2869;50.432;8.680;2022-10-15T09:31:26;10.10;;;6.90;;
5688;SDS011;2869;50.432;8.680;2022-10-15T09:33:56;10.90;;;7.40;;
5688;SDS011;2869;50.432;8.680;2022-10-15T09:36:33;10.50;;;8.30;;
5688;SDS011;2869;50.432;8.680;2022-10-15T09:39:09;11.00;;;7.93;;
5688;SDS011;2869;50.432;8.680;2022-10-15T09:41:53;8.27;;;6.90;;
5688;SDS011;2869;50.432;8.680;2022-10-15T09:44:31;10.53;;;7.10;;
5688;SDS011;2869;50.432;8.680;2022-10-15T09:47:09;7.60;;;6.43;;
5688;SDS011;2869;50.432;8.680;2022-10-15T09:49:41;7.23;;;5.50;;
5688;SDS011;2869;50.432;8.680;2022-10-15T09:52:10;10.57;;;6.80;;
5688;SDS011;2869;50.432;8.680;2022-10-15T09:54:43;9.40;;;7.00;;
5688;SDS011;2869;50.432;8.680;2022-10-15T09:57:17;11.93;;;6.90;;
5688;SDS011;2869;50.432;8.680;2022-10-15T09:59:53;7.10;;;5.47;;
5688;SDS011;2869;50.432;8.680;2022-10-15T10:02:21;11.13;;;5.33;;
5688;SDS011;2869;50.432;8.680;2022-10-15T10:04:49;6.50;;;5.13;;
5688;SDS011;2869;50.432;8.680;2022-10-15T10:07:28;6.33;;;4.73;;
5688;SDS011;2869;50.432;8.680;2022-10-15T10:09:57;4.73;;;3.67;;
5688;SDS011;2869;50.432;8.680;2022-10-15T10:12:27;4.40;;;3.93;;
5688;SDS011;2869;50.432;8.680;2022-10-15T10:14:56;6.53;;;2.77;;
5688;SDS011;2869;50.432;8.680;2022-10-15T10:17:24;2.53;;;2.33;;
5688;SDS011;2869;50.432;8.680;2022-10-15T10:20:08;7.37;;;2.27;;
5688;SDS011;2869;50.432;8.680;2022-10-15T10:22:44;3.40;;;1.97;;
5688;SDS011;2869;50.432;8.680;2022-10-15T10:25:22;2.60;;;2.43;;
5688;SDS011;2869;50.432;8.680;2022-10-15T10:27:54;4.13;;;2.50;;
5688;SDS011;2869;50.432;8.680;2022-10-15T10:30:22;6.93;;;3.07;;
5688;SDS011;2869;50.432;8.680;2022-10-15T10:32:53;6.93;;;4.07;;
5688;SDS011;2869;50.432;8.680;2022-10-15T10:35:21;8.63;;;4.13;;
5688;SDS011;2869;50.432;8.680;2022-10-15T10:37:51;4.97;;;4.47;;
5688;SDS011;2869;50.432;8.680;2022-10-15T10:40:20;6.10;;;4.17;;
5688;SDS011;2869;50.432;8.680;2022-10-15T10:42:52;4.67;;;4.00;;
5688;SDS011;2869;50.432;8.680;2022-10-15T10:45:35;6.27;;;3.33;;
5688;SDS011;2869;50.432;8.680;2022-10-15T10:48:14;1.87;;;1.77;;
5688;SDS011;2869;50.432;8.680;2022-10-15T10:50:44;2.50;;;2.30;;
5688;SDS011;2869;50.432;8.680;2022-10-15T10:53:22;3.43;;;3.07;;
5688;SDS011;2869;50.432;8.680;2022-10-15T10:55:50;3.83;;;3.47;;
5688;SDS011;2869;50.432;8.680;2022-10-15T10:58:20;2.60;;;2.40;;
5688;SDS011;2869;50.432;8.680;2022-10-15T11:00:49;2.73;;;2.53;;
5688;SDS011;2869;50.432;8.680;2022-10-15T11:03:19;2.80;;;2.60;;
5688;SDS011;2869;50.432;8.680;2022-10-15T11:05:58;3.23;;;2.93;;
5688;SDS011;2869;50.432;8.680;2022-10-15T11:08:35;3.10;;;2.80;;
5688;SDS011;2869;50.432;8.680;2022-10-15T11:11:12;3.90;;;3.57;;
5688;SDS011;2869;50.432;8.680;2022-10-15T11:13:48;3.20;;;3.00;;
5688;SDS011;2869;50.432;8.680;2022-10-15T11:16:28;3.63;;;3.30;;
5688;SDS011;2869;50.432;8.680;2022-10-15T11:19:01;3.13;;;2.93;;
5688;SDS011;2869;50.432;8.680;2022-10-15T11:21:40;5.10;;;3.33;;
5688;SDS011;2869;50.432;8.680;2022-10-15T11:24:18;2.90;;;2.70;;
5688;SDS011;2869;50.432;8.680;2022-10-15T11:26:53;6.00;;;2.50;;
5688;SDS011;2869;50.432;8.680;2022-10-15T11:29:30;2.97;;;2.77;;
5688;SDS011;2869;50.432;8.680;2022-10-15T11:32:08;3.50;;;3.27;;
5688;SDS011;2869;50.432;8.680;2022-10-15T11:34:44;2.10;;;2.00;;
5688;SDS011;2869;50.432;8.680;2022-10-15T11:37:27;2.90;;;2.00;;
5688;SDS011;2869;50.432;8.680;2022-10-15T11:40:11;2.53;;;2.10;;
5688;SDS011;2869;50.432;8.680;2022-10-15T11:42:45;3.37;;;1.70;;
5688;SDS011;2869;50.432;8.680;2022-10-15T11:45:38;2.80;;;2.00;;
5688;SDS011;2869;50.432;8.680;2022-10-15T11:48:21;2.20;;;2.10;;
5688;SDS011;2869;50.432;8.680;2022-10-15T11:50:58;2.00;;;1.90;;
5688;SDS011;2869;50.432;8.680;2022-10-15T11:53:33;2.30;;;2.10;;
5688;SDS011;2869;50.432;8.680;2022-10-15T11:56:27;2.27;;;2.07;;
5688;SDS011;2869;50.432;8.680;2022-10-15T11:58:59;2.47;;;2.27;;
5688;SDS011;2869;50.432;8.680;2022-10-15T12:01:38;4.47;;;2.30;;
5688;SDS011;2869;50.432;8.680;2022-10-15T12:04:11;2.50;;;2.30;;
5688;SDS011;2869;50.432;8.680;2022-10-15T12:06:41;2.40;;;2.20;;
5688;SDS011;2869;50.432;8.680;2022-10-15T12:09:14;2.73;;;2.47;;
5688;SDS011;2869;50.432;8.680;2022-10-15T12:11:47;2.47;;;2.30;;
5688;SDS011;2869;50.432;8.680;2022-10-15T12:14:19;2.60;;;2.40;;
5688;SDS011;2869;50.432;8.680;2022-10-15T12:16:53;2.10;;;2.00;;
5688;SDS011;2869;50.432;8.680;2022-10-15T12:19:27;2.50;;;2.30;;
5688;SDS011;2869;50.432;8.680;2022-10-15T12:22:02;3.10;;;1.90;;
5688;SDS011;2869;50.432;8.680;2022-10-15T12:24:49;2.73;;;2.50;;
5688;SDS011;2869;50.432;8.680;2022-10-15T12:27:21;7.33;;;2.50;;
5688;SDS011;2869;50.432;8.680;2022-10-15T12:29:51;2.30;;;2.10;;
5688;SDS011;2869;50.432;8.680;2022-10-15T12:32:37;2.20;;;2.10;;
5688;SDS011;2869;50.432;8.680;2022-10-15T12:35:06;2.27;;;2.07;;
5688;SDS011;2869;50.432;8.680;2022-10-15T12:37:45;4.50;;;2.33;;
5688;SDS011;2869;50.432;8.680;2022-10-15T12:40:22;2.50;;;2.30;;
5688;SDS011;2869;50.432;8.680;2022-10-15T12:42:54;3.87;;;2.27;;
5688;SDS011;2869;50.432;8.680;2022-10-15T12:45:22;2.40;;;2.30;;
5688;SDS011;2869;50.432;8.680;2022-10-15T12:47:55;2.57;;;2.33;;
5688;SDS011;2869;50.432;8.680;2022-10-15T12:50:43;3.30;;;2.50;;
5688;SDS011;2869;50.432;8.680;2022-10-15T12:56:10;2.73;;;2.27;;
5688;SDS011;2869;50.432;8.680;2022-10-15T12:58:40;3.30;;;2.10;;
5688;SDS011;2869;50.432;8.680;2022-10-15T13:01:26;2.60;;;2.40;;
5688;SDS011;2869;50.432;8.680;2022-10-15T13:03:54;5.57;;;3.07;;
5688;SDS011;2869;50.432;8.680;2022-10-15T13:06:23;3.03;;;2.50;;
5688;SDS011;2869;50.432;8.680;2022-10-15T13:08:57;3.50;;;3.30;;
5688;SDS011;2869;50.432;8.680;2022-10-15T13:11:42;3.83;;;3.43;;
5688;SDS011;2869;50.432;8.680;2022-10-15T13:14:16;3.50;;;3.20;;
5688;SDS011;2869;50.432;8.680;2022-10-15T13:16:49;6.03;;;4.00;;
5688;SDS011;2869;50.432;8.680;2022-10-15T13:19:16;3.97;;;3.27;;
5688;SDS011;2869;50.432;8.680;2022-10-15T13:21:48;4.07;;;3.27;;
5688;SDS011;2869;50.432;8.680;2022-10-15T13:24:20;5.07;;;4.10;;
5688;SDS011;2869;50.432;8.680;2022-10-15T13:26:48;4.50;;;4.10;;
5688;SDS011;2869;50.432;8.680;2022-10-15T13:29:17;3.60;;;3.40;;
5688;SDS011;2869;50.432;8.680;2022-10-15T13:31:44;3.57;;;3.30;;
5688;SDS011;2869;50.432;8.680;2022-10-15T13:34:13;4.67;;;3.90;;
5688;SDS011;2869;50.432;8.680;2022-10-15T13:36:46;4.30;;;3.83;;
5688;SDS011;2869;50.432;8.680;2022-10-15T13:39:19;6.50;;;3.87;;
5688;SDS011;2869;50.432;8.680;2022-10-15T13:41:49;4.70;;;4.20;;
5688;SDS011;2869;50.432;8.680;2022-10-15T13:44:22;4.80;;;4.07;;
5688;SDS011;2869;50.432;8.680;2022-10-15T13:46:49;4.43;;;4.03;;
5688;SDS011;2869;50.432;8.680;2022-10-15T13:49:16;3.83;;;3.53;;
5688;SDS011;2869;50.432;8.680;2022-10-15T13:51:44;4.27;;;3.87;;
5688;SDS011;2869;50.432;8.680;2022-10-15T13:54:14;5.13;;;4.40;;
5688;SDS011;2869;50.432;8.680;2022-10-15T13:56:45;4.70;;;4.30;;
5688;SDS011;2869;50.432;8.680;2022-10-15T13:59:17;3.93;;;3.63;;
5688;SDS011;2869;50.432;8.680;2022-10-15T14:01:46;6.70;;;4.87;;
5688;SDS011;2869;50.432;8.680;2022-10-15T14:04:15;4.50;;;4.00;;
5688;SDS011;2869;50.432;8.680;2022-10-15T14:06:50;3.87;;;3.60;;
5688;SDS011;2869;50.432;8.680;2022-10-15T14:09:20;4.50;;;3.93;;
5688;SDS011;2869;50.432;8.680;2022-10-15T14:11:50;5.13;;;4.63;;
5688;SDS011;2869;50.432;8.680;2022-10-15T14:14:27;3.83;;;3.20;;
5688;SDS011;2869;50.432;8.680;2022-10-15T14:16:56;8.03;;;4.53;;
5688;SDS011;2869;50.432;8.680;2022-10-15T14:19:24;3.73;;;3.50;;
5688;SDS011;2869;50.432;8.680;2022-10-15T14:21:54;4.50;;;4.10;;
5688;SDS011;2869;50.432;8.680;2022-10-15T14:24:22;4.90;;;4.40;;
5688;SDS011;2869;50.432;8.680;2022-10-15T14:26:53;4.43;;;4.03;;
5688;SDS011;2869;50.432;8.680;2022-10-15T14:29:21;4.00;;;3.77;;
5688;SDS011;2869;50.432;8.680;2022-10-15T14:31:52;10.03;;;4.93;;
5688;SDS011;2869;50.432;8.680;2022-10-15T14:34:27;4.50;;;4.10;;
5688;SDS011;2869;50.432;8.680;2022-10-15T14:37:25;11.37;;;4.70;;
5688;SDS011;2869;50.432;8.680;2022-10-15T14:40:02;5.20;;;3.77;;
5688;SDS011;2869;50.432;8.680;2022-10-15T14:42:37;4.07;;;3.87;;
5688;SDS011;2869;50.432;8.680;2022-10-15T14:45:11;4.00;;;3.70;;
5688;SDS011;2869;50.432;8.680;2022-10-15T14:47:43;3.53;;;3.30;;
5688;SDS011;2869;50.432;8.680;2022-10-15T14:50:13;2.93;;;2.83;;
5688;SDS011;2869;50.432;8.680;2022-10-15T14:52:42;4.07;;;3.20;;
5688;SDS011;2869;50.432;8.680;2022-10-15T14:55:13;3.30;;;2.93;;
5688;SDS011;2869;50.432;8.680;2022-10-15T14:57:44;3.03;;;2.83;;
5688;SDS011;2869;50.432;8.680;2022-10-15T15:00:13;3.33;;;2.90;;
5688;SDS011;2869;50.432;8.680;2022-10-15T15:02:42;3.63;;;3.33;;
5688;SDS011;2869;50.432;8.680;2022-10-15T15:05:16;3.20;;;3.00;;
5688;SDS011;2869;50.432;8.680;2022-10-15T15:07:45;5.87;;;3.30;;
5688;SDS011;2869;50.432;8.680;2022-10-15T15:10:13;5.30;;;3.40;;
5688;SDS011;2869;50.432;8.680;2022-10-15T15:12:41;3.10;;;2.90;;
5688;SDS011;2869;50.432;8.680;2022-10-15T15:15:15;5.57;;;2.87;;
5688;SDS011;2869;50.432;8.680;2022-10-15T15:17:44;2.60;;;2.40;;
5688;SDS011;2869;50.432;8.680;2022-10-15T15:20:10;2.70;;;2.10;;
5688;SDS011;2869;50.432;8.680;2022-10-15T15:22:39;2.47;;;1.90;;
5688;SDS011;2869;50.432;8.680;2022-10-15T15:25:09;2.20;;;2.00;;
5688;SDS011;2869;50.432;8.680;2022-10-15T15:27:39;7.33;;;1.70;;
5688;SDS011;2869;50.432;8.680;2022-10-15T15:30:07;1.70;;;1.60;;